Time;durP1;ratioP1;P1;durP2;ratioP2;P2;SDS_P1;SDS_P2;PMS_P1;PMS_P2;Temp;Humidity;BMP_temperature;BMP_pressure;BME280_temperature;BME280_humidity;BME280_pressure;Samples;Min_cycle;Max_cycle;Signal;HPM_P1;HPM_P2
2022/05/22 00:00:07;;;;;;;2.83;1.40;;;23.60;44.30;;;;;;5078003;28;20491;-61
2022/05/22 00:02:33;;;;;;;3.42;1.40;;;23.50;44.20;;;;;;5096036;28;20024;-60
2022/05/22 00:04:59;;;;;;;4.57;1.52;;;23.60;44.30;;;;;;5096108;28;20013;-60
2022/05/22 00:07:25;;;;;;;3.05;1.55;;;23.60;44.40;;;;;;5078045;28;20483;-60
2022/05/22 00:09:51;;;;;;;3.22;1.50;;;23.50;44.30;;;;;;5096301;28;20012;-60
2022/05/22 00:12:17;;;;;;;3.67;1.60;;;23.50;44.30;;;;;;5095964;28;20078;-60
2022/05/22 00:14:43;;;;;;;4.30;1.58;;;23.50;44.40;;;;;;5095974;28;20024;-60
2022/05/22 00:17:09;;;;;;;2.10;1.50;;;23.50;44.40;;;;;;5095771;28;20458;-60
2022/05/22 00:19:36;;;;;;;3.53;1.77;;;23.50;44.40;;;;;;5078216;28;20077;-60
2022/05/22 00:22:02;;;;;;;2.78;1.40;;;23.50;44.40;;;;;;5095519;28;20040;-60
2022/05/22 00:24:32;;;;;;;5.22;1.73;;;23.50;44.40;;;;;;5095932;28;20020;-60
2022/05/22 00:27:15;;;;;;;1.77;1.30;;;23.50;44.40;;;;;;5094000;28;20036;-60
2022/05/22 00:29:41;;;;;;;3.53;1.55;;;23.50;44.50;;;;;;5095838;28;20057;-60
2022/05/22 00:32:07;;;;;;;2.47;1.48;;;23.50;44.50;;;;;;5095733;28;20074;-60
2022/05/22 00:34:34;;;;;;;3.03;1.48;;;23.50;44.50;;;;;;5095725;28;20004;-60
2022/05/22 00:37:01;;;;;;;3.47;1.65;;;23.50;44.50;;;;;;5095685;28;20019;-60
2022/05/22 00:39:27;;;;;;;4.13;1.58;;;23.50;44.50;;;;;;5077963;28;20028;-60
2022/05/22 00:41:54;;;;;;;4.18;1.92;;;23.50;44.50;;;;;;5096033;28;20016;-60
2022/05/22 00:44:19;;;;;;;3.50;1.55;;;23.50;44.50;;;;;;5095829;28;20020;-60
2022/05/22 00:46:46;;;;;;;2.47;1.40;;;23.50;44.60;;;;;;5077260;28;20020;-60
2022/05/22 00:49:12;;;;;;;2.38;1.33;;;23.50;44.60;;;;;;5095143;28;20055;-60
2022/05/22 00:51:50;;;;;;;2.67;1.55;;;23.50;44.60;;;;;;5095196;28;20031;-60
2022/05/22 00:54:30;;;;;;;4.35;2.13;;;23.50;44.60;;;;;;5078201;28;20463;-60
2022/05/22 00:57:06;;;;;;;4.05;1.63;;;23.50;44.70;;;;;;5095345;28;20019;-60
2022/05/22 00:59:35;;;;;;;5.70;1.73;;;23.40;44.70;;;;;;5043383;28;20095;-60
2022/05/22 01:02:00;;;;;;;2.45;1.40;;;23.50;44.70;;;;;;5094991;28;20467;-60
2022/05/22 01:04:28;;;;;;;3.08;1.48;;;23.40;44.70;;;;;;5095338;28;20069;-60
2022/05/22 01:06:54;;;;;;;3.05;1.60;;;23.50;44.80;;;;;;5095037;28;20024;-60
2022/05/22 01:09:20;;;;;;;2.45;1.60;;;23.40;44.80;;;;;;5077061;28;20012;-60
2022/05/22 01:11:47;;;;;;;2.08;1.60;;;23.40;44.80;;;;;;5095417;28;20065;-60
2022/05/22 01:14:14;;;;;;;3.38;1.58;;;23.40;44.80;;;;;;5095440;28;20014;-60
2022/05/22 01:16:40;;;;;;;1.92;1.33;;;23.40;44.90;;;;;;5095279;28;20020;-60
2022/05/22 01:19:13;;;;;;;2.90;1.60;;;23.40;44.90;;;;;;5077144;28;20032;-60
2022/05/22 01:21:39;;;;;;;3.28;1.73;;;23.40;44.90;;;;;;5094699;28;20190;-60
2022/05/22 01:24:05;;;;;;;2.38;1.50;;;23.40;44.90;;;;;;5076673;28;20066;-60
2022/05/22 01:26:31;;;;;;;3.22;1.58;;;23.40;45.00;;;;;;5076989;28;20063;-60
2022/05/22 01:28:57;;;;;;;3.50;1.63;;;23.40;45.00;;;;;;5094431;28;20424;-60
2022/05/22 01:31:23;;;;;;;2.47;1.52;;;23.40;45.00;;;;;;5094645;28;20107;-60
2022/05/22 01:33:49;;;;;;;2.90;1.63;;;23.40;45.00;;;;;;5094413;28;20584;-60
2022/05/22 01:36:15;;;;;;;2.50;1.70;;;23.40;45.00;;;;;;5076183;28;20028;-60
2022/05/22 01:38:41;;;;;;;3.92;1.85;;;23.40;45.00;;;;;;5094520;28;20023;-60
2022/05/22 01:41:07;;;;;;;3.97;1.58;;;23.40;45.00;;;;;;5094427;28;20023;-60
2022/05/22 01:43:33;;;;;;;3.22;1.60;;;23.40;45.10;;;;;;5076180;28;20020;-60
2022/05/22 01:45:59;;;;;;;2.28;1.63;;;23.40;45.10;;;;;;5093977;28;20024;-60
2022/05/22 01:48:25;;;;;;;2.47;1.70;;;23.40;45.10;;;;;;5094274;28;20023;-60
2022/05/22 01:50:53;;;;;;;2.78;1.58;;;23.40;45.10;;;;;;5075878;28;20433;-60
2022/05/22 01:53:20;;;;;;;3.10;1.52;;;23.40;45.70;;;;;;5076654;28;20012;-60
2022/05/22 01:55:46;;;;;;;2.95;1.58;;;23.40;45.10;;;;;;5093882;28;20479;-60
2022/05/22 01:58:12;;;;;;;3.72;1.90;;;23.30;45.10;;;;;;5094104;28;20024;-60
2022/05/22 02:00:39;;;;;;;2.25;1.25;;;23.30;45.10;;;;;;5094143;28;20091;-60
2022/05/22 02:03:06;;;;;;;3.03;1.52;;;23.30;45.10;;;;;;5075986;28;20078;-60
2022/05/22 02:05:32;;;;;;;2.90;1.45;;;23.30;45.10;;;;;;5094266;28;20043;-60
2022/05/22 02:10:50;;;;;;;2.45;1.58;;;23.30;45.20;;;;;;5094499;28;20071;-60
2022/05/22 02:13:21;;;;;;;2.85;1.52;;;23.30;45.20;;;;;;5095135;28;20715;-60
2022/05/22 02:15:49;;;;;;;2.95;1.70;;;23.30;45.20;;;;;;5094612;28;20540;-60
2022/05/22 02:18:15;;;;;;;3.90;1.20;;;23.30;45.20;;;;;;5094140;28;20019;-60
2022/05/22 02:20:42;;;;;;;3.80;1.88;;;23.30;45.30;;;;;;5076830;28;20020;-60
2022/05/22 02:23:07;;;;;;;1.73;1.30;;;23.30;45.30;;;;;;5093282;28;20447;-60
2022/05/22 02:25:35;;;;;;;2.28;1.50;;;23.30;45.30;;;;;;5075532;28;20099;-60
2022/05/22 02:28:01;;;;;;;1.40;1.27;;;23.30;45.30;;;;;;5093562;28;20004;-60
2022/05/22 02:30:30;;;;;;;4.95;1.70;;;23.30;45.30;;;;;;5093592;28;20012;-60
2022/05/22 02:32:57;;;;;;;3.53;1.70;;;23.30;45.30;;;;;;5093558;28;20024;-60
2022/05/22 02:35:22;;;;;;;2.60;1.70;;;23.30;45.40;;;;;;5093293;28;20024;-60
2022/05/22 02:37:53;;;;;;;3.83;1.60;;;23.30;45.30;;;;;;5093471;28;20363;-60
2022/05/22 02:40:22;;;;;;;2.67;1.60;;;23.30;45.40;;;;;;5093162;28;20492;-60
2022/05/22 02:42:49;;;;;;;2.47;1.67;;;23.30;45.40;;;;;;5093145;28;20012;-60
2022/05/22 02:45:17;;;;;;;2.40;1.58;;;23.30;45.40;;;;;;5092962;28;20470;-60
2022/05/22 02:47:43;;;;;;;2.60;1.33;;;23.20;45.40;;;;;;5093201;28;20016;-60
2022/05/22 02:50:09;;;;;;;2.00;1.40;;;23.20;45.40;;;;;;5093380;28;20023;-61
2022/05/22 02:52:35;;;;;;;2.95;1.52;;;23.20;45.40;;;;;;5093132;28;20016;-60
2022/05/22 02:55:02;;;;;;;2.78;1.58;;;23.20;45.50;;;;;;5075889;28;20023;-60
2022/05/22 02:57:28;;;;;;;2.88;1.60;;;23.20;45.40;;;;;;5094255;28;20046;-60
2022/05/22 02:59:54;;;;;;;2.90;1.67;;;23.20;45.50;;;;;;5094797;28;20500;-60
2022/05/22 03:02:20;;;;;;;3.67;1.70;;;23.20;45.50;;;;;;5094078;28;20035;-60
2022/05/22 03:04:47;;;;;;;2.05;1.67;;;23.20;45.60;;;;;;5093979;28;20459;-60
2022/05/22 03:07:15;;;;;;;4.20;1.92;;;23.20;45.50;;;;;;5093706;28;20024;-60
2022/05/22 03:09:42;;;;;;;3.58;1.98;;;23.20;45.60;;;;;;5093561;28;20103;-60
2022/05/22 03:12:18;;;;;;;2.10;1.40;;;23.20;45.60;;;;;;5075206;28;20016;-60
2022/05/22 03:14:48;;;;;;;2.67;1.75;;;23.20;45.60;;;;;;5092751;28;20531;-60
2022/05/22 03:17:14;;;;;;;5.57;1.90;;;23.20;45.60;;;;;;5093123;28;20020;-60
2022/05/22 03:19:40;;;;;;;2.30;1.40;;;23.20;45.60;;;;;;5092986;28;20047;-60
2022/05/22 03:22:07;;;;;;;3.15;1.60;;;23.20;45.70;;;;;;5076668;28;20059;-60
2022/05/22 03:24:33;;;;;;;2.53;1.48;;;23.10;45.60;;;;;;5097300;28;20020;-60
2022/05/22 03:27:01;;;;;;;2.33;1.58;;;23.20;45.70;;;;;;5097349;28;20023;-60
2022/05/22 03:29:26;;;;;;;4.47;1.60;;;23.10;45.60;;;;;;5097380;28;20436;-60
2022/05/22 03:31:52;;;;;;;2.90;1.60;;;23.10;45.70;;;;;;5097640;28;20013;-60
2022/05/22 03:34:18;;;;;;;1.58;1.40;;;23.10;45.70;;;;;;5099048;28;20388;-58
2022/05/22 03:36:44;;;;;;;2.58;1.70;;;23.10;45.70;;;;;;5101305;28;20486;-58
2022/05/22 03:39:11;;;;;;;2.92;1.75;;;23.10;45.70;;;;;;5101868;28;20023;-59
2022/05/22 03:41:37;;;;;;;2.88;1.83;;;23.10;45.70;;;;;;5101533;28;20043;-58
2022/05/22 03:44:05;;;;;;;2.20;1.60;;;23.10;45.70;;;;;;5082681;28;20024;-58
2022/05/22 03:46:31;;;;;;;2.97;1.50;;;23.10;45.80;;;;;;5099230;28;20119;-58
2022/05/22 03:48:57;;;;;;;2.58;1.58;;;23.10;45.80;;;;;;5096675;28;20427;-58
2022/05/22 03:51:23;;;;;;;3.80;1.42;;;23.10;45.80;;;;;;5078294;28;20051;-58
2022/05/22 03:53:48;;;;;;;2.80;1.83;;;23.10;45.80;;;;;;5078164;28;20070;-58
2022/05/22 03:56:16;;;;;;;2.50;1.73;;;23.10;45.80;;;;;;5096530;28;20022;-58
2022/05/22 03:58:42;;;;;;;2.75;1.40;;;23.10;45.80;;;;;;5096438;28;20020;-58
2022/05/22 04:01:08;;;;;;;2.80;1.67;;;23.10;45.80;;;;;;5096432;28;20016;-59
2022/05/22 04:03:35;;;;;;;2.30;1.70;;;23.10;45.80;;;;;;5077927;28;20016;-58
2022/05/22 04:06:04;;;;;;;3.20;1.63;;;23.10;45.80;;;;;;5096256;28;20020;-58
2022/05/22 04:08:30;;;;;;;2.67;1.63;;;23.10;45.80;;;;;;5095970;28;20462;-58
2022/05/22 04:10:55;;;;;;;3.28;1.58;;;23.10;45.90;;;;;;5096042;28;20462;-58
2022/05/22 04:13:23;;;;;;;2.78;1.55;;;23.10;45.80;;;;;;5096155;28;20149;-58
2022/05/22 04:15:48;;;;;;;3.70;1.70;;;23.10;45.90;;;;;;5095830;28;20540;-58
2022/05/22 04:18:14;;;;;;;2.20;1.40;;;23.10;45.90;;;;;;5095817;28;20024;-58
2022/05/22 04:20:40;;;;;;;2.92;1.80;;;23.10;45.90;;;;;;5077750;28;20103;-58
2022/05/22 04:25:55;;;;;;;3.50;1.77;;;23.10;45.80;;;;;;5095754;28;20178;-59
2022/05/22 04:28:22;;;;;;;3.10;1.52;;;23.10;45.90;;;;;;5095693;28;20507;-58
2022/05/22 04:30:48;;;;;;;1.98;1.40;;;23.10;45.80;;;;;;5077501;28;20016;-58
2022/05/22 04:33:17;;;;;;;3.15;1.50;;;23.10;45.80;;;;;;5077167;28;20519;-58
2022/05/22 04:35:43;;;;;;;2.25;1.58;;;23.10;45.80;;;;;;5095642;28;20095;-58
2022/05/22 04:38:09;;;;;;;2.47;1.40;;;23.00;45.90;;;;;;5060792;28;20047;-58
2022/05/22 04:40:35;;;;;;;2.00;1.60;;;23.10;45.90;;;;;;5077576;28;20093;-58
2022/05/22 04:43:01;;;;;;;3.15;1.60;;;23.10;45.80;;;;;;5077195;28;20475;-58
2022/05/22 04:45:27;;;;;;;2.25;1.45;;;23.10;45.90;;;;;;5095308;28;20028;-58
2022/05/22 04:47:52;;;;;;;2.20;1.63;;;23.10;45.90;;;;;;5095438;28;20028;-58
2022/05/22 04:50:18;;;;;;;2.90;1.90;;;23.10;45.90;;;;;;5095226;28;20497;-58
2022/05/22 04:52:44;;;;;;;1.80;1.35;;;23.00;45.80;;;;;;5095292;28;20016;-57
2022/05/22 04:55:11;;;;;;;2.78;1.60;;;23.00;45.90;;;;;;5095481;28;20027;-58
2022/05/22 04:57:36;;;;;;;2.97;1.80;;;23.00;45.80;;;;;;5095341;28;20027;-58
2022/05/22 05:00:06;;;;;;;2.47;1.70;;;23.10;45.90;;;;;;5095333;28;20012;-57
2022/05/22 05:02:32;;;;;;;2.72;1.60;;;23.10;45.90;;;;;;5095552;28;20095;-57
2022/05/22 05:04:58;;;;;;;5.28;1.80;;;23.10;45.90;;;;;;5095010;28;20044;-57
2022/05/22 05:07:24;;;;;;;2.45;1.38;;;23.00;45.90;;;;;;5095107;28;20542;-58
2022/05/22 05:09:50;;;;;;;4.32;1.55;;;23.00;45.90;;;;;;5076891;28;20024;-57
2022/05/22 05:12:16;;;;;;;2.05;1.58;;;23.00;45.90;;;;;;5095102;28;20463;-58
2022/05/22 05:14:42;;;;;;;3.97;1.50;;;23.00;45.90;;;;;;5094714;28;20012;-58
2022/05/22 05:17:12;;;;;;;2.55;1.52;;;23.00;45.90;;;;;;5076688;28;20024;-57
2022/05/22 05:19:37;;;;;;;2.78;1.83;;;23.10;46.00;;;;;;5094685;28;20538;-58
2022/05/22 05:22:03;;;;;;;3.25;1.73;;;23.00;46.00;;;;;;5094640;28;20127;-58
2022/05/22 05:24:29;;;;;;;2.88;1.70;;;23.10;46.00;;;;;;5094821;28;20102;-58
2022/05/22 05:26:55;;;;;;;2.22;1.50;;;23.00;45.90;;;;;;5094679;28;20089;-58
2022/05/22 05:29:24;;;;;;;2.20;1.60;;;23.00;46.00;;;;;;5094386;28;20017;-58
2022/05/22 05:31:50;;;;;;;3.05;1.73;;;23.10;46.00;;;;;;5076425;28;20455;-58
2022/05/22 05:34:16;;;;;;;2.63;1.75;;;23.10;46.00;;;;;;5094993;28;20078;-58
2022/05/22 05:36:41;;;;;;;3.50;1.63;;;23.10;45.90;;;;;;5094197;28;20027;-58
2022/05/22 05:39:08;;;;;;;2.92;1.50;;;23.10;46.00;;;;;;5094796;28;20016;-58
2022/05/22 05:41:37;;;;;;;1.95;1.50;;;23.10;45.90;;;;;;5094342;28;20509;-58
2022/05/22 05:44:06;;;;;;;2.38;1.80;;;23.10;45.90;;;;;;5075901;28;20020;-58
2022/05/22 05:46:35;;;;;;;2.50;1.50;;;23.10;45.90;;;;;;5094829;28;20027;-58
2022/05/22 05:49:02;;;;;;;2.03;1.40;;;23.10;45.90;;;;;;5094645;28;20024;-58
2022/05/22 05:51:28;;;;;;;2.15;1.55;;;23.10;45.90;;;;;;5094452;28;20008;-57
2022/05/22 05:53:54;;;;;;;2.58;1.80;;;23.10;45.90;;;;;;5094637;28;20020;-58
2022/05/22 05:56:20;;;;;;;3.10;1.63;;;23.10;45.90;;;;;;5094119;28;20016;-58
2022/05/22 05:58:46;;;;;;;2.53;1.70;;;23.10;45.90;;;;;;5094208;28;20032;-58
2022/05/22 06:01:13;;;;;;;2.67;1.67;;;23.10;45.90;;;;;;5094236;28;20087;-58
2022/05/22 06:03:38;;;;;;;2.45;1.38;;;23.10;45.90;;;;;;5093979;28;20012;-58
2022/05/22 06:06:10;;;;;;;1.63;1.40;;;23.10;45.90;;;;;;5094084;28;20390;-59
2022/05/22 06:08:37;;;;;;;3.83;1.85;;;23.10;45.90;;;;;;5093884;28;20024;-58
2022/05/22 06:11:03;;;;;;;2.25;1.60;;;23.10;45.90;;;;;;5093809;28;20413;-58
2022/05/22 06:13:29;;;;;;;2.33;1.50;;;23.10;45.90;;;;;;5059087;28;20019;-58
2022/05/22 06:15:55;;;;;;;2.83;1.70;;;23.10;46.10;;;;;;5076307;28;20036;-58
2022/05/22 06:18:21;;;;;;;3.10;1.38;;;23.10;45.90;;;;;;5094005;28;20028;-58
2022/05/22 06:20:47;;;;;;;2.30;1.55;;;23.10;45.90;;;;;;5093768;28;20095;-58
2022/05/22 06:23:13;;;;;;;2.60;1.75;;;23.10;45.90;;;;;;5093187;28;20094;-58
2022/05/22 06:25:44;;;;;;;3.38;1.52;;;23.10;45.90;;;;;;5093557;28;20387;-58
2022/05/22 06:28:16;;;;;;;3.78;1.45;;;23.10;45.90;;;;;;5093323;28;20020;-58
2022/05/22 06:30:42;;;;;;;2.00;1.48;;;23.10;45.80;;;;;;5075162;28;20094;-58
2022/05/22 06:33:11;;;;;;;2.65;1.65;;;23.20;45.90;;;;;;5093643;28;20017;-58
2022/05/22 06:35:43;;;;;;;2.95;1.63;;;23.10;45.80;;;;;;5093505;28;20019;-58
2022/05/22 06:39:49;;;;;;;2.67;1.90;;;23.10;45.80;;;;;;5093473;28;20019;-58
2022/05/22 06:40:58;;;;;;;2.28;1.60;;;23.10;45.80;;;;;;5093055;28;20028;-58
2022/05/22 06:43:24;;;;;;;2.42;1.55;;;23.20;45.90;;;;;;5093453;28;20046;-58
2022/05/22 06:45:50;;;;;;;2.65;1.50;;;23.20;45.90;;;;;;5093153;28;20028;-58
2022/05/22 06:48:20;;;;;;;3.30;1.70;;;23.10;45.80;;;;;;5093330;28;20008;-59
2022/05/22 06:50:46;;;;;;;3.88;1.80;;;23.20;45.80;;;;;;5075229;28;20099;-58
2022/05/22 06:53:12;;;;;;;2.58;1.55;;;23.20;45.70;;;;;;5093303;28;20149;-59
2022/05/22 06:55:40;;;;;;;3.42;1.42;;;23.20;45.70;;;;;;5074972;28;20008;-58
2022/05/22 06:58:06;;;;;;;3.47;1.30;;;23.30;45.70;;;;;;5092785;28;20024;-59
2022/05/22 07:00:32;;;;;;;2.45;1.58;;;23.20;45.70;;;;;;5093240;28;20034;-59
2022/05/22 07:02:59;;;;;;;3.55;1.55;;;23.20;45.60;;;;;;5093119;28;20016;-58
2022/05/22 07:05:26;;;;;;;2.50;1.35;;;23.30;45.70;;;;;;5092995;28;20024;-58
2022/05/22 07:07:51;;;;;;;2.38;1.58;;;23.30;45.70;;;;;;5093397;28;20036;-59
2022/05/22 07:10:17;;;;;;;3.03;1.65;;;23.30;45.70;;;;;;5075107;28;20012;-59
2022/05/22 07:12:44;;;;;;;2.13;1.50;;;23.30;45.60;;;;;;5093436;28;20028;-58
2022/05/22 07:15:10;;;;;;;1.92;1.60;;;23.30;45.60;;;;;;5093846;28;20019;-58
2022/05/22 07:17:37;;;;;;;2.22;1.40;;;23.30;45.60;;;;;;5094270;28;20482;-58
2022/05/22 07:20:03;;;;;;;2.90;1.55;;;23.30;45.60;;;;;;5076468;28;20016;-58
2022/05/22 07:22:29;;;;;;;3.00;1.52;;;23.30;45.60;;;;;;5094790;28;20040;-58
2022/05/22 07:24:55;;;;;;;3.17;1.50;;;23.30;45.60;;;;;;5060271;28;20373;-58
2022/05/22 07:27:21;;;;;;;2.38;1.40;;;23.30;45.60;;;;;;5076076;28;20032;-58
2022/05/22 07:29:47;;;;;;;2.38;1.23;;;23.30;45.60;;;;;;5075067;28;20084;-58
2022/05/22 07:32:14;;;;;;;2.92;1.42;;;23.30;45.50;;;;;;5093371;28;20012;-59
2022/05/22 07:34:42;;;;;;;1.90;1.60;;;23.30;45.50;;;;;;5093049;28;20467;-58
2022/05/22 07:37:08;;;;;;;2.83;1.48;;;23.30;45.50;;;;;;5092994;28;20020;-59
2022/05/22 07:39:35;;;;;;;2.30;1.50;;;23.30;45.50;;;;;;5093051;28;20027;-58
2022/05/22 07:42:01;;;;;;;3.40;1.60;;;23.20;45.50;;;;;;5074468;28;20390;-58
2022/05/22 07:44:27;;;;;;;2.63;1.40;;;23.20;45.50;;;;;;5092909;28;20029;-59
2022/05/22 07:46:53;;;;;;;3.05;1.38;;;23.30;45.50;;;;;;5074460;28;20475;-59
2022/05/22 07:52:07;;;;;;;2.42;1.63;;;23.30;45.50;;;;;;5093311;28;20035;-58
2022/05/22 07:54:34;;;;;;;2.03;1.40;;;23.30;45.50;;;;;;5093148;28;20544;-58
2022/05/22 07:57:00;;;;;;;4.63;1.30;;;23.30;45.40;;;;;;5093019;28;20012;-58
2022/05/22 07:59:26;;;;;;;2.30;1.50;;;23.30;45.40;;;;;;5092880;28;20020;-58
2022/05/22 08:01:52;;;;;;;2.20;1.50;;;23.30;45.40;;;;;;5093105;28;20088;-58
2022/05/22 08:04:18;;;;;;;2.80;1.85;;;23.40;45.40;;;;;;5058173;28;20398;-58
2022/05/22 08:06:44;;;;;;;2.30;1.30;;;23.40;45.40;;;;;;5092805;28;20490;-58
2022/05/22 08:09:10;;;;;;;2.47;1.50;;;23.40;45.40;;;;;;5095757;28;20016;-58
2022/05/22 08:11:36;;;;;;;3.00;1.83;;;23.40;45.40;;;;;;5078336;28;20099;-58
2022/05/22 08:14:01;;;;;;;1.73;1.38;;;23.30;45.30;;;;;;5096453;28;20020;-58
2022/05/22 08:16:27;;;;;;;2.22;1.60;;;23.40;45.30;;;;;;5096411;28;20479;-58
2022/05/22 08:18:53;;;;;;;1.83;1.30;;;23.40;45.30;;;;;;5077871;28;20016;-58
2022/05/22 08:21:19;;;;;;;4.93;1.77;;;23.40;45.30;;;;;;5096348;28;20355;-58
2022/05/22 08:23:44;;;;;;;4.72;1.58;;;23.40;45.30;;;;;;5074358;28;20494;-58
2022/05/22 08:26:10;;;;;;;2.38;1.25;;;23.40;45.30;;;;;;5075516;28;20039;-58
2022/05/22 08:28:36;;;;;;;2.00;1.27;;;23.40;45.30;;;;;;5074697;28;20025;-58
2022/05/22 08:31:03;;;;;;;2.13;1.17;;;23.40;45.30;;;;;;5075627;28;20478;-59
2022/05/22 08:33:29;;;;;;;1.73;1.10;;;23.40;45.30;;;;;;5074500;28;20509;-58
2022/05/22 08:35:55;;;;;;;1.88;1.30;;;23.40;45.30;;;;;;5074947;28;20021;-58
2022/05/22 08:38:20;;;;;;;2.30;1.33;;;23.40;45.20;;;;;;5076217;28;20470;-58
2022/05/22 08:41:05;;;;;;;2.28;1.30;;;23.40;45.20;;;;;;5075724;28;20533;-58
2022/05/22 08:43:40;;;;;;;2.75;1.60;;;23.40;45.20;;;;;;5075762;28;20016;-58
2022/05/22 08:46:31;;;;;;;2.05;1.30;;;23.40;45.20;;;;;;5057914;28;20032;-58
2022/05/22 08:48:58;;;;;;;;;;;23.40;45.20;;;;;;5079271;28;20063;-58
2022/05/22 08:51:45;;;;;;;4.65;1.70;;;23.40;45.10;;;;;;5078521;28;19911;-58
2022/05/22 08:54:42;;;;;;;2.80;1.85;;;23.40;45.10;;;;;;5077280;28;20070;-59
2022/05/22 09:00:07;;;;;;;2.40;1.50;;;23.40;45.10;;;;;;5074136;28;20036;-58
2022/05/22 09:02:35;;;;;;;2.92;1.58;;;23.40;45.10;;;;;;5073624;28;20020;-58
2022/05/22 09:05:07;;;;;;;1.77;1.33;;;23.40;45.70;;;;;;5057077;28;20051;-58
2022/05/22 09:08:02;;;;;;;3.05;1.42;;;23.50;45.10;;;;;;5075043;28;20033;-58
2022/05/22 09:10:43;;;;;;;2.60;1.58;;;23.40;45.10;;;;;;5066669;28;20040;-59
2022/05/22 09:13:27;;;;;;;2.05;1.40;;;23.50;45.10;;;;;;5074580;28;20021;-59
2022/05/22 09:16:02;;;;;;;2.35;1.42;;;23.50;45.10;;;;;;5074776;28;20013;-58
2022/05/22 09:18:36;;;;;;;2.28;1.38;;;23.50;45.10;;;;;;5073490;28;20025;-58
2022/05/22 09:21:33;;;;;;;3.13;1.40;;;23.50;45.10;;;;;;5074116;28;20021;-58
2022/05/22 09:24:03;;;;;;;2.38;1.35;;;23.50;45.00;;;;;;5074427;28;20536;-59
2022/05/22 09:27:00;;;;;;;2.53;1.52;;;23.50;45.00;;;;;;5074546;28;20031;-58
2022/05/22 09:29:38;;;;;;;2.80;1.50;;;23.50;45.00;;;;;;5074216;28;20487;-58
2022/05/22 09:32:13;;;;;;;2.38;1.58;;;23.50;45.10;;;;;;5073333;28;20070;-58
2022/05/22 09:34:57;;;;;;;3.10;1.30;;;23.50;45.00;;;;;;5074719;28;20055;-59
2022/05/22 09:37:42;;;;;;;1.98;1.33;;;23.50;45.00;;;;;;5074503;28;20032;-59
2022/05/22 09:40:28;;;;;;;2.45;1.10;;;23.50;44.90;;;;;;5074709;28;20021;-58
2022/05/22 09:43:00;;;;;;;2.03;1.60;;;23.50;45.00;;;;;;5073991;28;20027;-58
2022/05/22 09:45:37;;;;;;;3.60;1.45;;;23.50;45.00;;;;;;5074539;28;20040;-59
2022/05/22 09:48:16;;;;;;;2.83;1.70;;;23.50;45.00;;;;;;5073345;28;20060;-59
2022/05/22 09:50:46;;;;;;;2.35;1.60;;;23.50;45.00;;;;;;5073895;28;20439;-58
2022/05/22 09:53:49;;;;;;;2.90;1.23;;;23.50;44.90;;;;;;5073852;28;20044;-59
2022/05/22 09:56:28;;;;;;;2.10;1.33;;;23.50;44.80;;;;;;5074081;28;20024;-58
2022/05/22 09:59:26;;;;;;;2.10;1.20;;;23.50;44.90;;;;;;5074089;28;20021;-58
2022/05/22 10:01:54;;;;;;;2.10;1.52;;;23.50;44.90;;;;;;5047855;28;20048;-58
2022/05/22 10:04:30;;;;;;;2.85;1.63;;;23.50;44.90;;;;;;5056391;28;20048;-58
2022/05/22 10:07:04;;;;;;;1.77;1.42;;;23.50;44.90;;;;;;5073803;28;20025;-58
2022/05/22 10:09:39;;;;;;;2.83;1.40;;;23.50;44.90;;;;;;5056145;28;20111;-59
2022/05/22 10:12:46;;;;;;;1.80;1.33;;;23.50;44.90;;;;;;5073444;28;20166;-58
2022/05/22 10:15:30;;;;;;;2.20;1.30;;;23.50;44.90;;;;;;5073377;28;20550;-59
2022/05/22 10:18:10;;;;;;;2.30;1.35;;;23.50;44.80;;;;;;5073326;28;20506;-59
2022/05/22 10:20:54;;;;;;;3.10;1.63;;;23.50;44.60;;;;;;5072249;28;20051;-58
2022/05/22 10:23:39;;;;;;;2.25;1.20;;;23.50;44.90;;;;;;5089412;28;20040;-58
2022/05/22 10:26:24;;;;;;;3.28;1.38;;;23.50;44.80;;;;;;5093476;28;20027;-58
2022/05/22 10:28:57;;;;;;;2.13;1.52;;;23.50;44.70;;;;;;5093841;28;20024;-59
2022/05/22 10:31:40;;;;;;;5.63;1.38;;;23.60;44.80;;;;;;5093211;28;20558;-58
2022/05/22 10:34:21;;;;;;;2.42;1.30;;;23.60;44.70;;;;;;5093617;28;20020;-58
2022/05/22 10:36:50;;;;;;;1.63;1.10;;;23.60;44.70;;;;;;5093662;28;20043;-58
2022/05/22 10:39:16;;;;;;;2.47;1.40;;;23.60;44.60;;;;;;5075800;28;20089;-58
2022/05/22 10:44:48;;;;;;;2.75;1.63;;;23.50;44.50;;;;;;5078460;28;20036;-58
2022/05/22 10:47:14;;;;;;;4.53;1.38;;;23.60;44.90;;;;;;5075224;28;20051;-58
2022/05/22 10:49:42;;;;;;;1.88;1.33;;;23.50;44.40;;;;;;5093541;28;20012;-58
2022/05/22 10:52:13;;;;;;;4.70;1.70;;;23.50;44.30;;;;;;5093387;28;20020;-58
2022/05/22 10:54:50;;;;;;;3.13;1.60;;;23.50;44.40;;;;;;5093356;28;20012;-59
2022/05/22 10:57:21;;;;;;;3.38;1.63;;;23.50;44.20;;;;;;5093310;28;20035;-58
2022/05/22 10:59:47;;;;;;;2.15;1.40;;;23.60;44.30;;;;;;5074926;28;20036;-58
2022/05/22 11:02:23;;;;;;;2.08;1.35;;;23.60;44.20;;;;;;5093115;28;20486;-58
2022/05/22 11:04:49;;;;;;;2.65;1.30;;;23.50;44.10;;;;;;5075862;28;20020;-58
2022/05/22 11:07:29;;;;;;;3.85;1.55;;;23.60;44.20;;;;;;5058229;28;20024;-59
2022/05/22 11:09:56;;;;;;;2.40;1.30;;;23.60;44.20;;;;;;5075999;28;20020;-59
2022/05/22 11:12:26;;;;;;;2.08;1.30;;;23.60;44.20;;;;;;5093105;28;20032;-58
2022/05/22 11:15:24;;;;;;;2.28;1.10;;;23.60;44.20;;;;;;5093133;28;20016;-59
2022/05/22 11:18:00;;;;;;;1.67;1.02;;;23.60;44.00;;;;;;5092837;28;20085;-58
2022/05/22 11:20:26;;;;;;;1.67;1.20;;;23.60;44.20;;;;;;5076774;28;20103;-58
2022/05/22 11:23:28;;;;;;;1.52;1.17;;;23.60;44.20;;;;;;5074702;28;20040;-59
2022/05/22 11:26:16;;;;;;;2.80;1.42;;;23.70;44.00;;;;;;5078676;28;20112;-58
2022/05/22 11:29:02;;;;;;;1.58;1.10;;;23.70;44.10;;;;;;5074719;28;20024;-58
2022/05/22 11:31:47;;;;;;;2.80;1.45;;;23.70;44.20;;;;;;5074676;28;20501;-59
2022/05/22 11:34:29;;;;;;;2.30;1.30;;;23.60;44.10;;;;;;5074593;28;20925;-59
2022/05/22 11:37:06;;;;;;;2.42;1.25;;;23.60;43.90;;;;;;5092535;28;20467;-59
2022/05/22 11:39:41;;;;;;;2.88;1.40;;;23.70;43.90;;;;;;5092953;28;20023;-59
2022/05/22 11:42:24;;;;;;;3.20;1.33;;;23.70;43.90;;;;;;5074505;28;20543;-58
2022/05/22 11:45:05;;;;;;;5.80;1.50;;;23.70;43.90;;;;;;5079059;28;20040;-58
2022/05/22 11:47:49;;;;;;;3.07;1.57;;;23.70;43.90;;;;;;5080691;28;20050;-58
2022/05/22 11:50:37;;;;;;;3.20;1.67;;;23.70;43.90;;;;;;5079943;28;20074;-58
2022/05/22 11:53:15;;;;;;;2.45;1.50;;;23.70;43.70;;;;;;5096494;28;20017;-58
2022/05/22 11:56:15;;;;;;;2.67;1.38;;;23.70;43.70;;;;;;5096802;28;20024;-59
2022/05/22 11:58:59;;;;;;;3.35;1.50;;;23.70;43.40;;;;;;5096866;28;20016;-58
2022/05/22 12:01:32;;;;;;;2.17;1.30;;;23.80;43.70;;;;;;5096878;28;20012;-59
2022/05/22 12:04:09;;;;;;;3.45;1.80;;;23.70;43.50;;;;;;5096661;28;20012;-59
2022/05/22 12:06:44;;;;;;;2.00;1.40;;;23.80;43.70;;;;;;5096862;28;20043;-58
2022/05/22 12:09:28;;;;;;;2.90;1.20;;;23.80;43.70;;;;;;5096816;28;20073;-59
2022/05/22 12:12:26;;;;;;;3.63;1.05;;;23.80;43.90;;;;;;5097159;28;20087;-58
2022/05/22 12:15:25;;;;;;;4.68;1.50;;;23.80;43.80;;;;;;5096671;28;20012;-59
2022/05/22 12:18:09;;;;;;;1.98;1.38;;;23.80;43.70;;;;;;5058930;28;20036;-59
2022/05/22 12:20:38;;;;;;;2.42;1.48;;;23.80;43.60;;;;;;5078700;28;20039;-59
2022/05/22 12:23:16;;;;;;;2.22;1.30;;;23.80;43.20;;;;;;5044527;28;20123;-59
2022/05/22 12:25:48;;;;;;;2.10;1.13;;;23.90;43.50;;;;;;5077553;28;20023;-59
2022/05/22 12:28:26;;;;;;;2.55;1.30;;;23.80;43.40;;;;;;5095723;28;20000;-59
2022/05/22 12:30:52;;;;;;;3.67;1.67;;;23.80;43.20;;;;;;5095710;28;20095;-59
2022/05/22 12:33:19;;;;;;;2.22;1.40;;;23.90;43.40;;;;;;5077768;28;20023;-59
2022/05/22 12:35:45;;;;;;;2.95;1.15;;;23.90;43.40;;;;;;5077652;28;20016;-59
2022/05/22 12:38:15;;;;;;;4.28;1.70;;;23.90;43.00;;;;;;5095638;28;20432;-58
2022/05/22 12:41:10;;;;;;;2.97;1.45;;;23.90;42.70;;;;;;5094035;28;20028;-58
2022/05/22 12:43:36;;;;;;;2.35;1.23;;;23.90;43.20;;;;;;5095493;28;20019;-60
2022/05/22 12:46:03;;;;;;;3.42;1.90;;;23.90;43.20;;;;;;5061009;28;20026;-59
2022/05/22 12:48:32;;;;;;;2.88;1.27;;;23.90;42.80;;;;;;5095959;28;20058;-59
2022/05/22 12:51:19;;;;;;;2.75;1.55;;;24.00;43.20;;;;;;5096138;28;20016;-58
2022/05/22 12:53:49;;;;;;;3.97;1.58;;;24.00;43.10;;;;;;5095850;28;20038;-58
2022/05/22 12:56:27;;;;;;;2.67;1.35;;;24.00;43.00;;;;;;5078148;28;20047;-59
2022/05/22 12:58:56;;;;;;;1.75;1.30;;;24.00;43.10;;;;;;5095771;28;20466;-58
2022/05/22 13:01:25;;;;;;;3.13;1.33;;;24.00;43.20;;;;;;5095761;28;20023;-59
2022/05/22 13:03:52;;;;;;;3.83;1.50;;;24.00;43.10;;;;;;5078821;28;20066;-59
2022/05/22 13:06:20;;;;;;;2.50;1.38;;;24.00;43.20;;;;;;5078161;28;20020;-59
2022/05/22 13:08:57;;;;;;;3.72;1.55;;;24.00;43.10;;;;;;5078108;28;20052;-59
2022/05/22 13:11:30;;;;;;;4.80;1.52;;;24.00;42.90;;;;;;5078793;28;20517;-59
2022/05/22 13:13:57;;;;;;;2.30;1.40;;;24.10;42.70;;;;;;5096172;28;20020;-59
2022/05/22 13:16:28;;;;;;;2.78;1.58;;;24.10;42.90;;;;;;5096046;28;20091;-59
2022/05/22 13:18:53;;;;;;;8.80;1.50;;;24.10;42.80;;;;;;5077609;28;20389;-59